Airfield :
LOGIN :

Register | Disclaimer

   EN    FR    IT 

 










Legend :    VFR   Marginal VFR   IFR   Intensive IFR   Very Intensive IFR
Visi :
Ceiling :
>= 8 km
>= 3000ft
5 to 8 km
1000 to 3000 ft
1500m to 5 km
500 to 1000 ft
800 to 1500m
200 to 500 ft
< 800m
< 200 ft
Symbols :   Thunderstorms  Fog  Heavy snow  Heavy precipitations  Wind > 20 kt
SIGMETs :     Misc.  Thunderstorms  Icing  Turbulence  Mountain Waves  Volcanic Ashes







- Airport Elevation : 512 ft
- IATA code : URO
- Download approach charts


LFOP - Rouen Vallée de Seine

CURRENT METAR :
  • 181130Z AUTO 24006KT 8000 BKN022 OVC028 06/06 Q1026 NOSIG

EXPIRED METARs :
  • 181100Z AUTO 21005KT 7000 BKN025 OVC034 06/05 Q1026 NOSIG
  • 181030Z AUTO 20003KT 6000 BKN025 OVC032 05/05 Q1026 BECMG 26012KT
  • 181000Z AUTO 21004KT 4200 BR FEW002 OVC027 05/05 Q1026 BECMG 6000 NSW
  • 180930Z AUTO 24004KT 3100 BR OVC028 05/05 Q1026 BECMG 6000 NSW

TAF TAF LFOP
Valid from the 18 at 12:00 until the 19 at 12:00 UTC


181100Z 1812/1912 23006KT 9999 BKN025
BECMG 1818/1820 OVC013
TEMPO 1820/1902 2000 RA BKN004 OVC013TCU
BECMG 1902/1904 35010KT SCT030
ATIS : +33 2 35 80 80 34
Met : +33 2 32 86 52 80
No reported NOTAMs for that airfield.



MET'MAP, your aeronautical weather chart ! - Copyright ORBIFLY December 2007 - Disclaimer

ORBIFLY MET'MAP TEAM :

Programming & Development : Alexandra Zaïnal
Concept & Development : Baudouin d'Aumeries
Co-Development & Prog : Marc-Olivier Méhu
Technical & hardware support : Manuel Goepfert

Contact : metmap@orbifly.com




SOURCES & CREDITS :

   NOAA